createdAt,value
2023-05-04T00:12:57.684Z,4.1
2023-05-04T00:28:31.876Z,5.3
2023-05-04T00:44:05.927Z,4.7
2023-05-04T00:59:40.225Z,4.5
2023-05-04T01:15:14.201Z,4.5
2023-05-04T01:30:48.172Z,4.9
2023-05-04T01:46:22.442Z,3.2
2023-05-04T02:01:56.773Z,6.1
2023-05-04T02:17:31.185Z,4.8
2023-05-04T02:33:05.602Z,4.7
2023-05-04T02:48:39.830Z,5.8
2023-05-04T03:04:13.861Z,4.7
2023-05-04T03:19:48.162Z,4.8
2023-05-04T03:35:24.838Z,4.3
2023-05-04T03:50:59.237Z,4.8
2023-05-04T04:06:33.166Z,4.5
2023-05-04T04:22:07.291Z,4.5
2023-05-04T04:37:41.340Z,5.6
2023-05-04T04:53:15.355Z,4.3
2023-05-04T05:08:49.372Z,6.5
2023-05-04T05:24:23.360Z,5.1
2023-05-04T05:39:59.427Z,4.2
2023-05-04T05:55:33.453Z,4.6
2023-05-04T06:11:07.457Z,5.5
2023-05-04T06:26:41.437Z,5.8
2023-05-04T06:42:15.564Z,4.9
2023-05-04T06:57:49.714Z,5.5
2023-05-04T07:13:24.008Z,5.1
2023-05-04T07:28:58.104Z,5.4
2023-05-04T07:44:32.215Z,4.9
2023-05-04T08:00:06.477Z,4.6
2023-05-04T08:15:41.456Z,4.1
2023-05-04T08:31:15.886Z,4
2023-05-04T08:46:50.312Z,4
2023-05-04T09:02:25.393Z,3.3
2023-05-04T09:18:02.141Z,4.1
2023-05-04T09:33:36.568Z,4.1
2023-05-04T09:49:10.834Z,4
2023-05-04T10:04:45.228Z,3.8
2023-05-04T10:20:19.405Z,2.3
2023-05-04T10:35:53.599Z,4.9
2023-05-04T10:51:35.922Z,3.4
2023-05-04T11:07:23.406Z,2.5
2023-05-04T11:22:57.674Z,2.9
2023-05-04T11:38:31.970Z,2.5
2023-05-04T11:54:06.444Z,2.5
2023-05-04T12:09:40.659Z,2.2
2023-05-04T12:25:15.137Z,2.7
2023-05-04T12:40:54.477Z,2.1
2023-05-04T12:56:28.746Z,2.4
2023-05-04T13:12:03.109Z,2.6
2023-05-04T13:27:37.465Z,2.1
2023-05-04T13:43:12.434Z,1.9
2023-05-04T13:58:46.730Z,1.9
2023-05-04T14:14:21.089Z,2.4
2023-05-04T14:29:55.391Z,2.1
2023-05-04T14:45:29.744Z,2.1
2023-05-04T15:01:03.955Z,2.3
2023-05-04T15:16:38.397Z,2.2
2023-05-04T15:32:12.967Z,2.1
2023-05-04T15:47:47.173Z,2.1
2023-05-04T16:03:21.862Z,1.8
2023-05-04T16:18:56.783Z,2.4
2023-05-04T16:34:30.965Z,2.3
2023-05-04T16:50:05.184Z,2
2023-05-04T17:05:40.506Z,2.7
2023-05-04T17:21:14.726Z,3.6
2023-05-04T17:36:48.881Z,3.3
2023-05-04T17:52:22.984Z,2.6
2023-05-04T18:07:57.117Z,3
2023-05-04T18:23:31.216Z,2.5
2023-05-04T18:39:05.415Z,2.4
2023-05-04T18:54:39.684Z,2.9
2023-05-04T19:10:13.770Z,2.6
2023-05-04T19:25:59.835Z,2.6
2023-05-04T19:41:33.990Z,2
2023-05-04T19:57:08.063Z,2.5
2023-05-04T20:12:42.206Z,2.9
2023-05-04T20:28:16.436Z,2.5
2023-05-04T20:43:50.594Z,2.7
2023-05-04T20:59:24.619Z,2.8
2023-05-04T21:14:58.673Z,2.7
2023-05-04T21:30:33.147Z,2.9
2023-05-04T21:46:07.202Z,2.5
2023-05-04T22:01:41.349Z,3.1
2023-05-04T22:17:15.415Z,3.3
2023-05-04T22:32:49.465Z,4
2023-05-04T22:48:23.697Z,4.8
2023-05-04T23:03:57.930Z,4.8
2023-05-04T23:19:31.996Z,4.7
2023-05-04T23:35:06.137Z,5
2023-05-04T23:50:40.184Z,4.3
